Zim Luanda — 9HA2029 — position and weather

sailwx.info

Track history (hours):
 
Tides and Currents Weather Stations Pressure Air Temp Water Temp Dewpoint Dewpoint Depression Visibility Wind Speed Wind Dir Waves Ship Positions

Zim Luanda

Last reported at 2014-Sep-13 00:32 UTC. Time now 2014-Sep-18 01:39 UTC.
Position N 32°04' W 080°58'.

Length 260 m; draft 11.1 m.

Type: Ship (hazmat cat A). MMSI: 249830000.

Date/timePositionNaut miles runAvg speedWind from/ knotsBaromVisibWave heightAir tempDewpointWater temp
2014-Sep-13 00:32N 32°04' W 080°58'8 7.4
2014-Sep-12 23:29N 32°06' W 081°07'1 1.2
2014-Sep-12 22:33N 32°07' W 081°08'0 0.0
2014-Sep-12 21:32N 32°07' W 081°08'0 0.0
2014-Sep-12 20:33N 32°07' W 081°08'0 0.0
2014-Sep-12 19:33N 32°07' W 081°08'0 0.0
2014-Sep-12 18:33N 32°07' W 081°08'0 0.0
2014-Sep-12 17:33N 32°07' W 081°08'0 0.0
2014-Sep-12 16:32N 32°07' W 081°08'0 0.0
2014-Sep-12 15:33N 32°07' W 081°08'0 0.0
2014-Sep-12 14:11N 32°07' W 081°08'0 0.0
2014-Sep-12 13:12N 32°07' W 081°08'0 0.0
2014-Sep-12 11:32N 32°07' W 081°08'0 0.0
2014-Sep-12 10:31N 32°07' W 081°08'0 0.0
2014-Sep-12 09:32N 32°07' W 081°08'2 2.2
2014-Sep-12 08:28N 32°06' W 081°06'5 6.0
2014-Sep-12 07:33N 32°06' W 080°60'50311.1
2014-Sep-10 10:18N 38°13' W 073°60'1013.6
2014-Sep-10 09:33N 38°23' W 073°57'1413.7
2014-Sep-10 08:31N 38°37' W 073°53'1413.3
2014-Sep-10 07:26N 38°51' W 073°52'3013.5
2014-Sep-10 05:15N 39°21' W 073°52'913.6
2014-Sep-10 04:33N 39°30' W 073°52'1413.5
2014-Sep-10 03:33N 39°44' W 073°52'1313.2
2014-Sep-10 02:33N 39°57' W 073°51'1313.1
2014-Sep-10 01:33N 40°10' W 073°50'1313.0
2014-Sep-10 00:33N 40°23' W 073°49'1111.2
2014-Sep-09 23:33N 40°31' W 073°59'10 9.9
2014-Sep-09 22:33N 40°39' W 074°07'3 2.5
2014-Sep-09 21:28N 40°41' W 074°09'0 0.0
2014-Sep-09 20:31N 40°41' W 074°09'0 0.0
2014-Sep-09 19:31N 40°41' W 074°09'0 0.0
2014-Sep-09 18:32N 40°41' W 074°09'0 0.0
2014-Sep-09 17:25N 40°41' W 074°09'0 0.0
2014-Sep-09 16:17N 40°41' W 074°09'0 0.0
2014-Sep-09 15:29N 40°41' W 074°09'0 0.0
2014-Sep-09 14:28N 40°41' W 074°09'0 0.0
2014-Sep-09 13:13N 40°41' W 074°09'0 0.0
2014-Sep-09 12:31N 40°41' W 074°09'0 0.0
2014-Sep-09 11:31N 40°41' W 074°09'0 0.0
2014-Sep-09 10:29N 40°41' W 074°09'0 0.0
2014-Sep-09 08:31N 40°41' W 074°09'0 0.0
2014-Sep-09 07:13N 40°41' W 074°09'0 0.0
2014-Sep-09 06:31N 40°41' W 074°09'0 0.0
2014-Sep-09 05:31N 40°41' W 074°09'0 0.0
2014-Sep-09 04:31N 40°41' W 074°09'0 0.0
2014-Sep-09 03:28N 40°41' W 074°09'0 0.0
2014-Sep-09 02:31N 40°41' W 074°09'0 0.0
2014-Sep-09 01:28N 40°41' W 074°09'0 0.0
2014-Sep-09 00:16N 40°41' W 074°09'0 0.0
2014-Sep-08 23:16N 40°41' W 074°09'1 1.6
2014-Sep-08 22:33N 40°40' W 074°08'5 5.4
2014-Sep-08 21:33N 40°37' W 074°03'9 9.1
2014-Sep-08 20:33N 40°29' W 073°55'8 8.4
2014-Sep-08 19:33N 40°27' W 073°45'8 6.7
2014-Sep-08 18:17N 40°28' W 073°33'1612.7
2014-Sep-08 17:04N 40°29' W 073°13'813.8
2014-Sep-08 16:31N 40°30' W 073°03'1313.8
2014-Sep-08 15:33N 40°30' W 072°46'1413.9
2014-Sep-08 14:33N 40°31' W 072°27'1413.8
2014-Sep-08 13:34N 40°31' W 072°09'1413.8
2014-Sep-08 12:34N 40°31' W 071°51'1515.0
2014-Sep-08 11:33N 40°32' W 071°31'1413.6
2014-Sep-08 10:33N 40°32' W 071°13'1413.8
2014-Sep-08 09:33N 40°33' W 070°55'1414.0
2014-Sep-08 08:33N 40°33' W 070°37'1413.8
2014-Sep-08 07:33N 40°33' W 070°19'1413.8
2014-Sep-08 06:33N 40°34' W 070°01'1414.2
2014-Sep-08 05:34N 40°34' W 069°42'1414.0
2014-Sep-08 04:33N 40°34' W 069°24'1413.9
2014-Sep-08 03:34N 40°35' W 069°05'1312.7
2014-Sep-08 02:33N 40°39' W 068°50'1412.9
2014-Sep-08 01:30N 40°46' W 068°34'1312.6
2014-Sep-08 00:29N 40°52' W 068°19'30114.1
2014-Sep-07 03:10N 44°24' W 063°29'712.1
2014-Sep-07 02:33N 44°31' W 063°31'7 7.0
2014-Sep-07 01:33N 44°38' W 063°34'0 0.0
2014-Sep-07 00:24N 44°38' W 063°34'0 0.0
2014-Sep-06 23:24N 44°38' W 063°34'0 0.0
2014-Sep-06 22:12N 44°38' W 063°34'0 0.0
2014-Sep-06 21:27N 44°38' W 063°34'0 0.0
2014-Sep-06 20:27N 44°38' W 063°34'0 0.0
2014-Sep-06 19:30N 44°38' W 063°34'0 0.0
2014-Sep-06 18:27N 44°38' W 063°34'0 0.0
2014-Sep-06 17:30N 44°38' W 063°34'0 0.0
2014-Sep-06 16:33N 44°38' W 063°34'0 0.0
2014-Sep-06 15:33N 44°38' W 063°34'0 0.0
2014-Sep-06 14:33N 44°38' W 063°34'0 0.0
2014-Sep-06 13:33N 44°38' W 063°34'0 0.0
2014-Sep-06 12:33N 44°38' W 063°34'0 0.0
2014-Sep-06 11:33N 44°38' W 063°34'0 0.0
2014-Sep-06 10:33N 44°38' W 063°34'2 2.1
2014-Sep-06 09:33N 44°36' W 063°32'1212.0
2014-Sep-06 08:33N 44°28' W 063°20'1616.1
2014-Sep-06 07:33N 44°27' W 062°58'1616.0
2014-Sep-06 06:33N 44°26' W 062°35'1616.1
2014-Sep-06 05:33N 44°25' W 062°13'  
Track history (hours):
 
Tides and Currents Weather Stations Pressure Air Temp Water Temp Dewpoint Dewpoint Depression Visibility Wind Speed Wind Dir Waves Ship Positions

Zim Luanda

Last reported at 2014-Sep-13 00:32 UTC. Time now 2014-Sep-18 01:39 UTC.
Position N 32°04' W 080°58'.

Length 260 m; draft 11.1 m.

Type: Ship (hazmat cat A). MMSI: 249830000.

Date/timePositionNaut miles runAvg speedWind from/ knotsBaromVisibWave heightAir tempDewpointWater temp
2014-Sep-13 00:32N 32°04' W 080°58'8 7.4
2014-Sep-12 23:29N 32°06' W 081°07'1 1.2
2014-Sep-12 22:33N 32°07' W 081°08'0 0.0
2014-Sep-12 21:32N 32°07' W 081°08'0 0.0
2014-Sep-12 20:33N 32°07' W 081°08'0 0.0
2014-Sep-12 19:33N 32°07' W 081°08'0 0.0
2014-Sep-12 18:33N 32°07' W 081°08'0 0.0
2014-Sep-12 17:33N 32°07' W 081°08'0 0.0
2014-Sep-12 16:32N 32°07' W 081°08'0 0.0
2014-Sep-12 15:33N 32°07' W 081°08'0 0.0
2014-Sep-12 14:11N 32°07' W 081°08'0 0.0
2014-Sep-12 13:12N 32°07' W 081°08'0 0.0
2014-Sep-12 11:32N 32°07' W 081°08'0 0.0
2014-Sep-12 10:31N 32°07' W 081°08'0 0.0
2014-Sep-12 09:32N 32°07' W 081°08'2 2.2
2014-Sep-12 08:28N 32°06' W 081°06'5 6.0
2014-Sep-12 07:33N 32°06' W 080°60'50311.1
2014-Sep-10 10:18N 38°13' W 073°60'1013.6
2014-Sep-10 09:33N 38°23' W 073°57'1413.7
2014-Sep-10 08:31N 38°37' W 073°53'1413.3
2014-Sep-10 07:26N 38°51' W 073°52'3013.5
2014-Sep-10 05:15N 39°21' W 073°52'913.6
2014-Sep-10 04:33N 39°30' W 073°52'1413.5
2014-Sep-10 03:33N 39°44' W 073°52'1313.2
2014-Sep-10 02:33N 39°57' W 073°51'1313.1
2014-Sep-10 01:33N 40°10' W 073°50'1313.0
2014-Sep-10 00:33N 40°23' W 073°49'1111.2
2014-Sep-09 23:33N 40°31' W 073°59'10 9.9
2014-Sep-09 22:33N 40°39' W 074°07'3 2.5
2014-Sep-09 21:28N 40°41' W 074°09'0 0.0
2014-Sep-09 20:31N 40°41' W 074°09'0 0.0
2014-Sep-09 19:31N 40°41' W 074°09'0 0.0
2014-Sep-09 18:32N 40°41' W 074°09'0 0.0
2014-Sep-09 17:25N 40°41' W 074°09'0 0.0
2014-Sep-09 16:17N 40°41' W 074°09'0 0.0
2014-Sep-09 15:29N 40°41' W 074°09'0 0.0
2014-Sep-09 14:28N 40°41' W 074°09'0 0.0
2014-Sep-09 13:13N 40°41' W 074°09'0 0.0
2014-Sep-09 12:31N 40°41' W 074°09'0 0.0
2014-Sep-09 11:31N 40°41' W 074°09'0 0.0
2014-Sep-09 10:29N 40°41' W 074°09'0 0.0
2014-Sep-09 08:31N 40°41' W 074°09'0 0.0
2014-Sep-09 07:13N 40°41' W 074°09'0 0.0
2014-Sep-09 06:31N 40°41' W 074°09'0 0.0
2014-Sep-09 05:31N 40°41' W 074°09'0 0.0
2014-Sep-09 04:31N 40°41' W 074°09'0 0.0
2014-Sep-09 03:28N 40°41' W 074°09'0 0.0
2014-Sep-09 02:31N 40°41' W 074°09'0 0.0
2014-Sep-09 01:28N 40°41' W 074°09'0 0.0
2014-Sep-09 00:16N 40°41' W 074°09'0 0.0
2014-Sep-08 23:16N 40°41' W 074°09'1 1.6
2014-Sep-08 22:33N 40°40' W 074°08'5 5.4
2014-Sep-08 21:33N 40°37' W 074°03'9 9.1
2014-Sep-08 20:33N 40°29' W 073°55'8 8.4
2014-Sep-08 19:33N 40°27' W 073°45'8 6.7
2014-Sep-08 18:17N 40°28' W 073°33'1612.7
2014-Sep-08 17:04N 40°29' W 073°13'813.8
2014-Sep-08 16:31N 40°30' W 073°03'1313.8
2014-Sep-08 15:33N 40°30' W 072°46'1413.9
2014-Sep-08 14:33N 40°31' W 072°27'1413.8
2014-Sep-08 13:34N 40°31' W 072°09'1413.8
2014-Sep-08 12:34N 40°31' W 071°51'1515.0
2014-Sep-08 11:33N 40°32' W 071°31'1413.6
2014-Sep-08 10:33N 40°32' W 071°13'1413.8
2014-Sep-08 09:33N 40°33' W 070°55'1414.0
2014-Sep-08 08:33N 40°33' W 070°37'1413.8
2014-Sep-08 07:33N 40°33' W 070°19'1413.8
2014-Sep-08 06:33N 40°34' W 070°01'1414.2
2014-Sep-08 05:34N 40°34' W 069°42'1414.0
2014-Sep-08 04:33N 40°34' W 069°24'1413.9
2014-Sep-08 03:34N 40°35' W 069°05'1312.7
2014-Sep-08 02:33N 40°39' W 068°50'1412.9
2014-Sep-08 01:30N 40°46' W 068°34'1312.6
2014-Sep-08 00:29N 40°52' W 068°19'30114.1
2014-Sep-07 03:10N 44°24' W 063°29'712.1
2014-Sep-07 02:33N 44°31' W 063°31'7 7.0
2014-Sep-07 01:33N 44°38' W 063°34'0 0.0
2014-Sep-07 00:24N 44°38' W 063°34'0 0.0
2014-Sep-06 23:24N 44°38' W 063°34'0 0.0
2014-Sep-06 22:12N 44°38' W 063°34'0 0.0
2014-Sep-06 21:27N 44°38' W 063°34'0 0.0
2014-Sep-06 20:27N 44°38' W 063°34'0 0.0
2014-Sep-06 19:30N 44°38' W 063°34'0 0.0
2014-Sep-06 18:27N 44°38' W 063°34'0 0.0
2014-Sep-06 17:30N 44°38' W 063°34'0 0.0
2014-Sep-06 16:33N 44°38' W 063°34'0 0.0
2014-Sep-06 15:33N 44°38' W 063°34'0 0.0
2014-Sep-06 14:33N 44°38' W 063°34'0 0.0
2014-Sep-06 13:33N 44°38' W 063°34'0 0.0
2014-Sep-06 12:33N 44°38' W 063°34'0 0.0
2014-Sep-06 11:33N 44°38' W 063°34'0 0.0
2014-Sep-06 10:33N 44°38' W 063°34'2 2.1
2014-Sep-06 09:33N 44°36' W 063°32'1212.0
2014-Sep-06 08:33N 44°28' W 063°20'1616.1
2014-Sep-06 07:33N 44°27' W 062°58'1616.0
2014-Sep-06 06:33N 44°26' W 062°35'1616.1
2014-Sep-06 05:33N 44°25' W 062°13'  

Dump ship's entire track history